TimeCST,TemperatureF,Dew PointF,Humidity,Sea Level PressureIn,VisibilityMPH,Wind Direction,Wind SpeedMPH,Gust SpeedMPH,PrecipitationIn,Events,Conditions,WindDirDegrees,DateUTC
12:56 AM,29.1,25.2,85,30.13,10.0,ENE,8.1,-,N/A,,Mostly Cloudy,70,2012-12-09 06:56:00
1:56 AM,29.1,24.1,81,30.13,10.0,NE,5.8,-,N/A,,Clear,50,2012-12-09 07:56:00
2:56 AM,28.0,23.0,81,30.13,10.0,Calm,Calm,-,N/A,,Scattered Clouds,0,2012-12-09 08:56:00
3:56 AM,29.1,24.1,81,30.08,10.0,ENE,11.5,-,N/A,,Overcast,60,2012-12-09 09:56:00
4:56 AM,31.1,26.1,82,30.08,10.0,ENE,9.2,-,N/A,,Mostly Cloudy,70,2012-12-09 10:56:00
5:56 AM,32.9,26.1,76,30.08,10.0,East,8.1,-,N/A,,Overcast,80,2012-12-09 11:56:00
6:56 AM,32.9,26.1,76,30.08,10.0,ENE,9.2,-,N/A,,Overcast,60,2012-12-09 12:56:00
8:07 AM,32.0,26.6,80,30.05,1.8,ENE,9.2,-,0.00,Snow,Light Snow,70,2012-12-09 14:07:00
8:13 AM,30.2,28.4,93,30.05,1.0,ENE,10.4,-,0.00,Snow,Light Snow,70,2012-12-09 14:13:00
8:25 AM,30.2,28.4,93,30.04,1.0,ENE,8.1,-,0.00,Snow,Light Snow,70,2012-12-09 14:25:00
8:56 AM,30.0,30.0,100,30.05,1.0,ENE,12.7,-,0.00,Snow,Light Snow,70,2012-12-09 14:56:00
9:07 AM,30.2,30.2,100,30.02,1.2,ENE,10.4,-,0.00,Snow,Light Snow,60,2012-12-09 15:07:00
9:27 AM,30.2,30.2,100,30.01,1.2,ENE,11.5,-,0.00,Snow,Light Snow,60,2012-12-09 15:27:00
9:42 AM,30.2,30.2,100,30.01,1.0,ENE,11.5,-,0.00,Snow,Light Snow,60,2012-12-09 15:42:00
9:56 AM,31.1,31.1,100,30.03,1.0,ENE,10.4,19.6,0.00,Snow,Light Snow,70,2012-12-09 15:56:00
10:08 AM,30.2,30.2,100,30.00,1.2,ENE,12.7,-,0.01,Snow,Light Snow,60,2012-12-09 16:08:00
10:15 AM,30.2,30.2,100,29.99,1.2,ENE,12.7,19.6,0.01,Snow,Light Snow,60,2012-12-09 16:15:00
10:31 AM,30.2,30.2,100,29.99,1.0,ENE,10.4,-,0.01,Snow,Light Snow,60,2012-12-09 16:31:00
10:56 AM,31.1,31.1,100,30.00,1.0,NE,11.5,-,0.01,Snow,Light Snow,50,2012-12-09 16:56:00
11:31 AM,30.2,30.2,100,29.94,1.2,ENE,8.1,-,0.01,Snow,Light Snow,60,2012-12-09 17:31:00
11:39 AM,30.2,30.2,100,29.93,1.0,ENE,11.5,-,0.01,Snow,Light Snow,60,2012-12-09 17:39:00
11:47 AM,30.2,30.2,100,29.93,0.8,ENE,11.5,-,0.01,Snow,Light Snow,60,2012-12-09 17:47:00
11:56 AM,31.1,31.1,100,29.95,0.8,ENE,9.2,-,0.01,Snow,Light Snow,60,2012-12-09 17:56:00
12:25 PM,30.2,30.2,100,29.91,0.5,NE,9.2,-,0.01,Fog-Snow,Light Snow,50,2012-12-09 18:25:00
12:56 PM,31.1,31.1,100,29.91,0.5,NE,10.4,-,0.01,Fog-Snow,Light Snow,50,2012-12-09 18:56:00
1:16 PM,30.2,30.2,100,29.86,0.5,NE,10.4,-,0.01,Fog-Snow,Light Snow,50,2012-12-09 19:16:00
1:22 PM,30.2,30.2,100,29.86,0.8,ENE,10.4,-,0.01,Snow,Light Snow,60,2012-12-09 19:22:00
1:56 PM,31.1,31.1,100,29.87,1.0,NE,9.2,-,0.01,Snow,Light Snow,50,2012-12-09 19:56:00
2:05 PM,30.2,30.2,100,29.84,1.5,ENE,9.2,-,0.00,Snow,Light Snow,60,2012-12-09 20:05:00
2:19 PM,30.2,30.2,100,29.82,2.5,NE,10.4,-,0.00,Snow,Light Snow,50,2012-12-09 20:19:00
2:29 PM,32.0,32.0,100,29.83,3.0,NE,8.1,-,0.00,Snow,Light Snow,50,2012-12-09 20:29:00
2:56 PM,32.0,32.0,100,29.84,2.0,ENE,9.2,-,0.00,Snow,Light Snow,60,2012-12-09 20:56:00
3:03 PM,32.0,32.0,100,29.82,1.5,NE,11.5,-,0.00,Snow,Light Snow,50,2012-12-09 21:03:00
3:30 PM,32.0,32.0,100,29.82,2.0,ENE,6.9,-,0.00,Snow,Light Snow,60,2012-12-09 21:30:00
3:41 PM,32.0,32.0,100,29.82,1.5,ENE,8.1,-,0.00,Snow,Light Snow,60,2012-12-09 21:41:00
3:56 PM,32.0,32.0,100,29.84,1.2,NE,6.9,-,0.01,Snow,Light Snow,50,2012-12-09 21:56:00
4:09 PM,32.0,32.0,100,29.80,1.5,ENE,9.2,-,0.00,Snow,Light Snow,70,2012-12-09 22:09:00
4:36 PM,32.0,32.0,100,29.78,2.0,ENE,8.1,-,0.00,Snow,Light Snow,70,2012-12-09 22:36:00
4:48 PM,32.0,32.0,100,29.79,3.0,ENE,5.8,-,0.00,Snow,Light Snow,70,2012-12-09 22:48:00
4:56 PM,32.0,32.0,100,29.81,3.0,ENE,6.9,-,0.00,Snow,Light Snow,70,2012-12-09 22:56:00
5:21 PM,32.0,32.0,100,29.78,3.0,ENE,8.1,-,0.00,Snow,Light Snow,60,2012-12-09 23:21:00
5:56 PM,32.0,32.0,100,29.81,9.0,ENE,6.9,-,0.00,,Overcast,60,2012-12-09 23:56:00
6:40 PM,32.0,32.0,100,29.79,2.0,NE,5.8,-,0.01,Snow,Light Snow,50,2012-12-10 00:40:00
6:56 PM,32.0,32.0,100,29.80,1.5,NE,4.6,-,0.02,Snow,Light Snow,40,2012-12-10 00:56:00
7:02 PM,32.0,32.0,100,29.77,1.0,NE,6.9,-,0.00,Snow,Light Snow,50,2012-12-10 01:02:00
7:19 PM,30.2,30.2,100,29.77,1.5,NE,6.9,-,0.00,Snow,Light Snow,40,2012-12-10 01:19:00
7:33 PM,32.0,32.0,100,29.77,2.5,NNE,6.9,-,0.00,Snow,Light Snow,30,2012-12-10 01:33:00
7:42 PM,32.0,32.0,100,29.76,3.0,NE,6.9,-,0.00,Snow,Light Snow,40,2012-12-10 01:42:00
7:56 PM,32.0,32.0,100,29.76,2.0,NE,8.1,-,0.01,Snow,Light Snow,40,2012-12-10 01:56:00
8:06 PM,32.0,32.0,100,29.74,1.8,NE,6.9,-,0.00,Snow,Light Snow,40,2012-12-10 02:06:00
8:19 PM,30.2,30.2,100,29.74,2.0,NE,8.1,-,0.00,Snow,Light Snow,40,2012-12-10 02:19:00
8:40 PM,30.2,30.2,100,29.72,2.0,NE,8.1,-,0.00,Snow,Light Snow,50,2012-12-10 02:40:00
8:56 PM,32.0,32.0,100,29.75,2.5,NE,5.8,-,0.00,Snow,Light Snow,40,2012-12-10 02:56:00
9:06 PM,32.0,32.0,100,29.73,4.0,NE,6.9,-,0.01,Snow,Light Snow,40,2012-12-10 03:06:00
10:28 PM,30.2,30.2,100,29.72,2.5,NE,6.9,-,0.00,Snow,Light Snow,40,2012-12-10 04:28:00
10:56 PM,31.1,31.1,100,29.74,2.5,NE,5.8,-,0.00,Snow,Light Snow,50,2012-12-10 04:56:00
11:29 PM,30.2,30.2,100,29.71,1.8,NE,4.6,-,0.00,Snow,Light Snow,50,2012-12-10 05:29:00
11:37 PM,30.2,30.2,100,29.71,2.5,NE,5.8,-,0.00,Snow,Light Snow,40,2012-12-10 05:37:00
11:46 PM,30.2,30.2,100,29.71,4.0,NE,5.8,-,0.00,Snow,Light Snow,40,2012-12-10 05:46:00
11:56 PM,31.1,31.1,100,29.72,5.0,NE,8.1,-,0.00,Snow,Light Snow,50,2012-12-10 05:56:00